createdAt,value
2018-12-05T00:02:16.106Z,26.17
2018-12-05T00:04:45.216Z,28.33
2018-12-05T00:07:14.338Z,25.10
2018-12-05T00:09:43.451Z,25.33
2018-12-05T00:12:12.594Z,24.17
2018-12-05T00:14:41.785Z,20.27
2018-12-05T00:17:10.917Z,30.03
2018-12-05T00:19:40.652Z,28.27
2018-12-05T00:22:09.801Z,24.70
2018-12-05T00:24:38.922Z,21.70
2018-12-05T00:27:08.041Z,25.90
2018-12-05T00:29:37.238Z,22.50
2018-12-05T00:32:06.530Z,27.60
2018-12-05T00:34:35.643Z,25.43
2018-12-05T00:37:04.776Z,26.03
2018-12-05T00:39:33.939Z,32.70
2018-12-05T00:42:03.081Z,23.87
2018-12-05T00:44:32.198Z,20.13
2018-12-05T00:47:01.379Z,24.40
2018-12-05T00:49:30.506Z,32.53
2018-12-05T00:52:00.173Z,27.87
2018-12-05T00:54:29.306Z,25.63
2018-12-05T00:56:58.569Z,24.33
2018-12-05T00:59:27.708Z,28.63
2018-12-05T01:01:56.837Z,18.93
2018-12-05T01:04:25.950Z,25.70
2018-12-05T01:06:55.116Z,24.77
2018-12-05T01:09:24.215Z,25.63
2018-12-05T01:11:53.396Z,21.63
2018-12-05T01:14:22.601Z,27.70
2018-12-05T01:16:51.850Z,22.40
2018-12-05T01:19:21.451Z,26.77
2018-12-05T01:21:50.602Z,29.43
2018-12-05T01:24:19.746Z,23.87
2018-12-05T01:26:48.869Z,27.20
2018-12-05T01:29:18.034Z,26.13
2018-12-05T01:31:47.289Z,23.60
2018-12-05T01:34:16.501Z,30.30
2018-12-05T01:36:45.654Z,23.60
2018-12-05T01:39:14.877Z,28.73
2018-12-05T01:41:44.015Z,30.87
2018-12-05T01:44:13.316Z,22.77
2018-12-05T01:46:42.884Z,19.80
2018-12-05T01:49:11.987Z,19.83
2018-12-05T01:51:41.237Z,20.33
2018-12-05T01:54:10.372Z,24.50
2018-12-05T01:56:39.510Z,22.47
2018-12-05T01:59:08.831Z,27.37
2018-12-05T02:01:37.976Z,20.53
2018-12-05T02:04:07.119Z,22.00
2018-12-05T02:06:36.356Z,21.47
2018-12-05T02:09:08.144Z,25.00
2018-12-05T02:11:37.451Z,23.17
2018-12-05T02:14:06.920Z,22.17
2018-12-05T02:16:36.069Z,26.43
2018-12-05T02:19:06.412Z,27.70
2018-12-05T02:21:35.523Z,29.53
2018-12-05T02:24:04.725Z,25.43
2018-12-05T02:26:33.825Z,20.37
2018-12-05T02:29:02.974Z,23.03
2018-12-05T02:31:32.115Z,20.87
2018-12-05T02:34:01.247Z,29.10
2018-12-05T02:36:30.711Z,26.77
2018-12-05T02:38:59.844Z,25.17
2018-12-05T02:41:28.968Z,20.73
2018-12-05T02:43:58.092Z,23.77
2018-12-05T02:46:27.270Z,25.07
2018-12-05T02:48:56.370Z,22.03
2018-12-05T02:51:25.477Z,18.57
2018-12-05T02:53:54.648Z,21.03
2018-12-05T02:56:23.741Z,19.97
2018-12-05T02:58:53.399Z,19.20
2018-12-05T03:01:22.605Z,16.07
2018-12-05T03:03:51.693Z,18.83
2018-12-05T03:06:20.796Z,21.43
2018-12-05T03:08:49.950Z,15.80
2018-12-05T03:11:19.081Z,19.97
2018-12-05T03:13:48.241Z,19.83
2018-12-05T03:16:17.345Z,20.77
2018-12-05T03:18:46.472Z,18.40
2018-12-05T03:21:15.683Z,17.57
2018-12-05T03:23:44.806Z,19.63
2018-12-05T03:26:15.047Z,23.43
2018-12-05T03:28:44.178Z,22.07
2018-12-05T03:31:13.352Z,21.43
2018-12-05T03:33:42.480Z,25.47
2018-12-05T03:36:11.657Z,20.73
2018-12-05T03:38:40.778Z,24.53
2018-12-05T03:41:09.919Z,26.00
2018-12-05T03:43:39.837Z,29.90
2018-12-05T03:46:09.053Z,21.53
2018-12-05T03:48:38.250Z,27.63
2018-12-05T03:51:07.433Z,24.20
2018-12-05T03:53:36.664Z,30.67
2018-12-05T03:56:05.993Z,25.60
2018-12-05T03:58:35.403Z,29.70
2018-12-05T04:01:04.941Z,27.27
2018-12-05T04:03:35.114Z,28.53
2018-12-05T04:06:04.299Z,24.13
2018-12-05T04:08:33.588Z,27.13
2018-12-05T04:11:03.821Z,18.03
2018-12-05T04:13:32.981Z,20.13
2018-12-05T04:16:02.131Z,24.77
2018-12-05T04:18:31.377Z,23.57
2018-12-05T04:21:00.506Z,20.30
2018-12-05T04:23:29.673Z,23.40
2018-12-05T04:25:59.239Z,20.43
2018-12-05T04:28:28.838Z,19.97
2018-12-05T04:30:58.050Z,27.30
2018-12-05T04:33:27.620Z,29.40
2018-12-05T04:35:56.749Z,21.97
2018-12-05T04:38:25.919Z,28.70
2018-12-05T04:40:55.403Z,22.17
2018-12-05T04:43:24.519Z,22.23
2018-12-05T04:45:53.745Z,28.43
2018-12-05T04:48:23.041Z,31.90
2018-12-05T04:50:52.813Z,30.23
2018-12-05T04:53:22.022Z,26.40
2018-12-05T04:55:51.148Z,41.17
2018-12-05T04:58:20.355Z,33.03
2018-12-05T05:00:49.453Z,34.77
2018-12-05T05:03:18.581Z,29.73
2018-12-05T05:05:47.737Z,27.83
2018-12-05T05:08:16.852Z,27.67
2018-12-05T05:10:45.956Z,22.63
2018-12-05T05:13:15.129Z,29.27
2018-12-05T05:15:44.265Z,32.70
2018-12-05T05:18:13.381Z,22.17
2018-12-05T05:20:43.269Z,30.00
2018-12-05T05:23:12.381Z,23.60
2018-12-05T05:25:41.498Z,27.27
2018-12-05T05:28:10.813Z,26.40
2018-12-05T05:30:39.896Z,21.97
2018-12-05T05:33:09.014Z,24.87
2018-12-05T05:35:38.173Z,31.40
2018-12-05T05:38:07.349Z,24.67
2018-12-05T05:40:36.476Z,29.73
2018-12-05T05:43:05.655Z,29.13
2018-12-05T05:45:34.829Z,34.30
2018-12-05T05:48:04.367Z,32.97
2018-12-05T05:50:33.462Z,26.03
2018-12-05T05:53:02.672Z,30.37
2018-12-05T05:55:31.780Z,37.87
2018-12-05T05:58:00.955Z,66.53
2018-12-05T06:00:30.115Z,32.13
2018-12-05T06:02:59.239Z,32.03
2018-12-05T06:05:28.425Z,29.03
2018-12-05T06:07:57.584Z,29.73
2018-12-05T06:10:26.722Z,26.30
2018-12-05T06:12:55.832Z,24.50
2018-12-05T06:15:25.033Z,24.97
2018-12-05T06:17:54.159Z,29.10
2018-12-05T06:20:23.267Z,29.23
2018-12-05T06:22:52.425Z,18.40
2018-12-05T06:25:21.607Z,17.57
2018-12-05T06:27:50.800Z,25.93
2018-12-05T06:30:20.875Z,24.40
2018-12-05T06:32:50.015Z,26.50
2018-12-05T06:35:19.873Z,24.37
2018-12-05T06:37:49.086Z,22.13
2018-12-05T06:40:18.361Z,26.37
2018-12-05T06:42:47.570Z,22.27
2018-12-05T06:45:16.692Z,26.13
2018-12-05T06:47:45.813Z,29.07
2018-12-05T06:50:15.013Z,31.47
2018-12-05T06:52:44.218Z,29.30
2018-12-05T06:55:13.408Z,23.93
2018-12-05T06:57:42.525Z,38.13
2018-12-05T07:00:11.870Z,35.90
2018-12-05T07:02:40.970Z,36.13
2018-12-05T07:05:10.113Z,39.70
2018-12-05T07:07:39.243Z,31.83
2018-12-05T07:10:08.394Z,38.93
2018-12-05T07:12:37.556Z,35.00
2018-12-05T07:15:07.453Z,32.00
2018-12-05T07:17:36.605Z,38.47
2018-12-05T07:20:07.915Z,39.03
2018-12-05T07:22:37.816Z,36.13
2018-12-05T07:25:07.338Z,39.20
2018-12-05T07:27:36.701Z,39.57
2018-12-05T07:30:06.532Z,37.93
2018-12-05T07:32:36.364Z,38.53
2018-12-05T07:35:06.162Z,33.97
2018-12-05T07:37:35.373Z,37.30
2018-12-05T07:40:04.797Z,32.53
2018-12-05T07:42:33.907Z,31.60
2018-12-05T07:45:03.700Z,37.00
2018-12-05T07:47:32.872Z,31.30
2018-12-05T07:50:02.004Z,35.53
2018-12-05T07:52:31.164Z,38.70
2018-12-05T07:55:00.350Z,38.37
2018-12-05T07:57:29.473Z,30.83
2018-12-05T07:59:58.715Z,43.57
2018-12-05T08:02:27.903Z,44.37
2018-12-05T08:04:57.945Z,38.87
2018-12-05T08:07:27.603Z,39.67
2018-12-05T08:09:56.793Z,34.90
2018-12-05T08:12:25.920Z,33.50
2018-12-05T08:14:55.034Z,28.53
2018-12-05T08:17:24.179Z,33.27
2018-12-05T08:19:53.354Z,30.13
2018-12-05T08:22:22.562Z,30.60
2018-12-05T08:24:51.766Z,35.87
2018-12-05T08:27:20.970Z,31.37
2018-12-05T08:29:50.122Z,28.03
2018-12-05T08:32:19.258Z,35.63
2018-12-05T08:34:48.408Z,31.47
2018-12-05T08:37:17.587Z,24.33
2018-12-05T08:39:46.791Z,30.43
2018-12-05T08:42:15.952Z,27.97
2018-12-05T08:44:45.539Z,23.63
2018-12-05T08:47:15.161Z,22.70
2018-12-05T08:49:44.296Z,27.30
2018-12-05T08:52:13.459Z,28.07
2018-12-05T08:54:42.655Z,27.47
2018-12-05T08:57:12.465Z,22.47
2018-12-05T08:59:42.031Z,21.43
2018-12-05T09:02:11.174Z,20.57
2018-12-05T09:04:40.347Z,21.47
2018-12-05T09:07:09.495Z,15.27
2018-12-05T09:09:38.607Z,18.63
2018-12-05T09:12:07.758Z,19.50
2018-12-05T09:14:36.901Z,21.60
2018-12-05T09:17:06.026Z,20.50
2018-12-05T09:19:35.159Z,18.50
2018-12-05T09:22:05.022Z,17.53
2018-12-05T09:24:34.205Z,20.70
2018-12-05T09:27:03.359Z,17.77
2018-12-05T09:29:33.145Z,15.77
2018-12-05T09:32:02.335Z,18.67
2018-12-05T09:34:31.494Z,80.83
2018-12-05T09:37:00.619Z,23.67
2018-12-05T09:39:29.774Z,19.40
2018-12-05T09:41:58.911Z,32.53
2018-12-05T09:44:28.037Z,15.60
2018-12-05T09:46:57.190Z,17.03
2018-12-05T09:49:26.493Z,15.73
2018-12-05T09:51:55.681Z,21.27
2018-12-05T09:54:25.390Z,23.20
2018-12-05T09:56:54.516Z,16.60
2018-12-05T09:59:23.717Z,15.77
2018-12-05T10:01:53.148Z,17.00
2018-12-05T10:04:22.301Z,19.77
2018-12-05T10:06:51.810Z,14.87
2018-12-05T10:09:20.929Z,23.40
2018-12-05T10:11:50.071Z,16.93
2018-12-05T10:14:19.258Z,17.63
2018-12-05T10:16:48.393Z,25.67
2018-12-05T10:19:17.532Z,25.37
2018-12-05T10:21:47.247Z,19.60
2018-12-05T10:24:16.994Z,16.03
2018-12-05T10:26:46.258Z,25.87
2018-12-05T10:29:15.395Z,17.90
2018-12-05T10:31:45.481Z,21.37
2018-12-05T10:34:16.251Z,27.00
2018-12-05T10:36:46.362Z,20.50
2018-12-05T10:39:15.570Z,22.60
2018-12-05T10:41:44.825Z,26.73
2018-12-05T10:44:13.968Z,21.47
2018-12-05T10:46:43.406Z,24.17
2018-12-05T10:49:12.628Z,22.47
2018-12-05T10:51:41.753Z,15.30
2018-12-05T10:54:11.447Z,20.07
2018-12-05T10:56:40.609Z,19.30
2018-12-05T10:59:09.887Z,20.73
2018-12-05T11:01:44.235Z,16.60
2018-12-05T11:04:23.352Z,30.20
2018-12-05T11:06:58.507Z,22.07
2018-12-05T11:09:32.719Z,19.97
2018-12-05T11:12:07.970Z,19.13
2018-12-05T11:14:42.270Z,19.43
2018-12-05T11:17:16.517Z,16.83
2018-12-05T11:19:51.162Z,18.73
2018-12-05T11:22:25.524Z,13.60
2018-12-05T11:24:58.816Z,21.30
2018-12-05T11:27:28.034Z,23.90
2018-12-05T11:29:57.561Z,22.00
2018-12-05T11:32:26.721Z,22.10
2018-12-05T11:34:56.562Z,21.87
2018-12-05T11:37:26.625Z,16.23
2018-12-05T11:39:55.790Z,18.47
2018-12-05T11:42:24.911Z,19.73
2018-12-05T11:44:54.985Z,16.00
2018-12-05T11:47:24.134Z,18.10
2018-12-05T11:49:54.140Z,47.73
2018-12-05T11:52:23.262Z,26.63
2018-12-05T11:54:52.418Z,19.93
2018-12-05T11:57:21.574Z,19.93
2018-12-05T11:59:50.689Z,20.40
2018-12-05T12:02:22.445Z,21.93
2018-12-05T12:04:51.991Z,26.40
2018-12-05T12:07:21.314Z,30.23
2018-12-05T12:09:50.513Z,25.93
2018-12-05T12:12:24.880Z,19.57
2018-12-05T12:14:55.264Z,17.13
2018-12-05T12:17:24.408Z,19.97
2018-12-05T12:19:53.574Z,28.57
2018-12-05T12:22:22.831Z,23.10
2018-12-05T12:24:52.039Z,30.23
2018-12-05T12:27:21.168Z,22.53
2018-12-05T12:29:50.721Z,22.33
2018-12-05T12:32:19.879Z,27.87
2018-12-05T12:34:50.011Z,25.87
2018-12-05T12:37:19.902Z,26.67
2018-12-05T12:39:49.526Z,22.17
2018-12-05T12:42:19.202Z,20.83
2018-12-05T12:44:48.330Z,21.90
2018-12-05T12:47:17.322Z,26.17
2018-12-05T12:49:46.261Z,21.10
2018-12-05T12:52:15.150Z,23.10
2018-12-05T12:54:44.120Z,21.90
2018-12-05T12:57:13.029Z,30.63
2018-12-05T12:59:41.915Z,34.90
2018-12-05T13:02:10.821Z,32.07
2018-12-05T13:04:39.711Z,29.53
2018-12-05T13:07:08.637Z,27.37
2018-12-05T13:09:37.558Z,30.70
2018-12-05T13:12:06.418Z,44.13
2018-12-05T13:14:35.281Z,42.43
2018-12-05T13:17:04.187Z,29.33
2018-12-05T13:19:33.041Z,24.47
2018-12-05T13:22:02.060Z,28.83
2018-12-05T13:24:30.931Z,23.13
2018-12-05T13:26:59.773Z,30.90
2018-12-05T13:29:28.623Z,23.20
2018-12-05T13:31:57.461Z,26.03
2018-12-05T13:34:27.089Z,28.10
2018-12-05T13:36:55.993Z,26.30
2018-12-05T13:39:24.849Z,21.00
2018-12-05T13:41:54.495Z,27.63
2018-12-05T13:44:23.392Z,38.13
2018-12-05T13:46:52.668Z,36.23
2018-12-05T13:49:21.556Z,28.87
2018-12-05T13:51:50.432Z,29.47
2018-12-05T13:54:19.422Z,25.93
2018-12-05T13:56:48.873Z,23.80
2018-12-05T13:59:17.733Z,39.90
2018-12-05T14:01:46.617Z,31.60
2018-12-05T14:04:15.533Z,29.77
2018-12-05T14:06:44.761Z,27.43
2018-12-05T14:09:14.139Z,30.10
2018-12-05T14:11:43.365Z,33.10
2018-12-05T14:14:12.225Z,36.53
2018-12-05T14:16:41.071Z,37.17
2018-12-05T14:19:09.978Z,38.40
2018-12-05T14:21:38.848Z,35.47
2018-12-05T14:24:07.779Z,37.67
2018-12-05T14:26:36.628Z,36.77
2018-12-05T14:29:05.522Z,36.57
2018-12-05T14:31:34.474Z,31.83
2018-12-05T14:34:03.369Z,32.97
2018-12-05T14:36:32.225Z,43.57
2018-12-05T14:39:01.150Z,54.53
2018-12-05T14:41:29.983Z,63.43
2018-12-05T14:43:58.984Z,50.47
2018-12-05T14:46:27.881Z,43.20
2018-12-05T14:48:56.763Z,47.77
2018-12-05T14:51:25.608Z,49.13
2018-12-05T14:53:54.487Z,45.53
2018-12-05T14:56:23.395Z,39.30
2018-12-05T14:58:52.584Z,50.60
2018-12-05T15:01:21.456Z,50.60
2018-12-05T15:03:50.450Z,55.20
2018-12-05T15:06:19.341Z,60.70
2018-12-05T15:08:48.234Z,61.77
2018-12-05T15:11:18.759Z,48.27
2018-12-05T15:13:47.761Z,46.50
2018-12-05T15:16:16.600Z,53.53
2018-12-05T15:18:45.565Z,65.10
2018-12-05T15:21:14.494Z,97.27
2018-12-05T15:23:43.366Z,83.40
2018-12-05T15:26:12.333Z,82.90
2018-12-05T15:28:41.181Z,82.83
2018-12-05T15:31:10.122Z,90.17
2018-12-05T15:33:40.297Z,110.70
2018-12-05T15:36:09.209Z,150.37
2018-12-05T15:38:38.056Z,122.97
2018-12-05T15:41:06.956Z,96.47
2018-12-05T15:43:35.878Z,72.63
2018-12-05T15:46:04.767Z,73.53
2018-12-05T15:48:33.672Z,60.17
2018-12-05T15:51:02.563Z,60.37
2018-12-05T15:53:31.494Z,71.27
2018-12-05T15:56:00.367Z,111.77
2018-12-05T15:58:29.325Z,136.03
2018-12-05T16:00:58.516Z,99.97
2018-12-05T16:03:27.401Z,87.37
2018-12-05T16:05:56.306Z,101.10
2018-12-05T16:08:25.210Z,94.57
2018-12-05T16:10:54.089Z,91.47
2018-12-05T16:13:22.953Z,109.97
2018-12-05T16:15:51.898Z,97.83
2018-12-05T16:18:20.744Z,95.77
2018-12-05T16:20:49.612Z,142.40
2018-12-05T16:23:18.665Z,173.10
2018-12-05T16:25:48.234Z,141.03
2018-12-05T16:28:17.214Z,170.40
2018-12-05T16:30:47.194Z,196.80
2018-12-05T16:33:16.106Z,184.07
2018-12-05T16:35:44.965Z,135.43
2018-12-05T16:38:13.848Z,121.73
2018-12-05T16:40:43.197Z,188.97
2018-12-05T16:43:12.145Z,193.00
2018-12-05T16:45:41.043Z,286.17
2018-12-05T16:48:09.990Z,292.07
2018-12-05T16:50:38.944Z,195.77
2018-12-05T16:53:07.906Z,138.33
2018-12-05T16:55:36.773Z,141.20
2018-12-05T16:58:05.704Z,156.10
2018-12-05T17:00:34.614Z,177.37
2018-12-05T17:03:03.487Z,183.20
2018-12-05T17:05:32.412Z,221.17
2018-12-05T17:08:01.289Z,202.23
2018-12-05T17:10:30.165Z,204.13
2018-12-05T17:12:59.068Z,190.10
2018-12-05T17:15:27.929Z,154.93
2018-12-05T17:17:56.800Z,151.57
2018-12-05T17:20:27.129Z,165.50
2018-12-05T17:22:55.987Z,164.33
2018-12-05T17:25:24.941Z,157.57
2018-12-05T17:27:53.828Z,205.00
2018-12-05T17:30:22.752Z,202.17
2018-12-05T17:32:51.639Z,215.93
2018-12-05T17:35:20.550Z,214.67
2018-12-05T17:37:49.453Z,237.33
2018-12-05T17:40:18.353Z,233.07
2018-12-05T17:42:47.330Z,220.47
2018-12-05T17:45:16.222Z,219.13
2018-12-05T17:47:45.138Z,191.53
2018-12-05T17:50:14.069Z,162.50
2018-12-05T17:52:42.960Z,168.47
2018-12-05T17:55:11.905Z,236.53
2018-12-05T17:57:40.957Z,195.93
2018-12-05T18:00:10.000Z,209.40
2018-12-05T18:02:38.876Z,236.00
2018-12-05T18:05:08.030Z,222.33
2018-12-05T18:07:36.933Z,199.87
2018-12-05T18:10:06.528Z,206.27
2018-12-05T18:12:35.488Z,191.00
2018-12-05T18:15:04.725Z,169.63
2018-12-05T18:17:33.643Z,160.83
2018-12-05T18:20:02.624Z,172.43
2018-12-05T18:22:31.575Z,180.87
2018-12-05T18:25:00.477Z,177.43
2018-12-05T18:27:29.456Z,179.70
2018-12-05T18:29:58.398Z,182.87
2018-12-05T18:32:27.304Z,210.43
2018-12-05T18:34:56.269Z,224.60
2018-12-05T18:37:25.263Z,226.37
2018-12-05T18:39:54.251Z,196.97
2018-12-05T18:42:23.147Z,176.97
2018-12-05T18:44:52.095Z,148.37
2018-12-05T18:47:21.522Z,165.30
2018-12-05T18:49:50.451Z,258.57
2018-12-05T18:52:19.343Z,310.83
2018-12-05T18:54:48.223Z,283.53
2018-12-05T18:57:17.145Z,275.70
2018-12-05T18:59:46.076Z,251.00
2018-12-05T19:02:15.353Z,222.50
2018-12-05T19:04:44.438Z,229.40
2018-12-05T19:07:13.484Z,240.70
2018-12-05T19:09:42.454Z,206.87
2018-12-05T19:12:11.413Z,190.33
2018-12-05T19:14:46.859Z,180.73
2018-12-05T19:17:15.769Z,175.13
2018-12-05T19:19:44.667Z,162.00
2018-12-05T19:22:13.749Z,151.30
2018-12-05T19:24:42.684Z,150.53
2018-12-05T19:27:11.596Z,154.77
2018-12-05T19:29:40.530Z,160.93
2018-12-05T19:32:09.691Z,145.93
2018-12-05T19:34:38.637Z,150.17
2018-12-05T19:37:07.604Z,147.80
2018-12-05T19:39:36.491Z,137.47
2018-12-05T19:42:05.418Z,130.37
2018-12-05T19:44:34.397Z,128.43
2018-12-05T19:47:03.326Z,126.30
2018-12-05T19:49:32.224Z,139.70
2018-12-05T19:52:01.202Z,147.70
2018-12-05T19:54:30.122Z,136.40
2018-12-05T19:56:59.288Z,135.50
2018-12-05T19:59:28.206Z,130.40
2018-12-05T20:01:57.147Z,134.03
2018-12-05T20:04:26.457Z,122.13
2018-12-05T20:06:55.638Z,115.23
2018-12-05T20:09:24.533Z,124.50
2018-12-05T20:11:54.368Z,138.27
2018-12-05T20:14:29.445Z,137.90
2018-12-05T20:16:59.174Z,138.33
2018-12-05T20:19:28.160Z,147.73
2018-12-05T20:21:57.061Z,141.77
2018-12-05T20:24:25.966Z,133.37
2018-12-05T20:26:55.110Z,122.37
2018-12-05T20:29:24.141Z,114.80
2018-12-05T20:31:53.049Z,125.87
2018-12-05T20:34:21.948Z,130.43
2018-12-05T20:36:50.864Z,130.23
2018-12-05T20:39:25.895Z,134.53
2018-12-05T20:41:57.428Z,139.90
2018-12-05T20:44:26.300Z,133.23
2018-12-05T20:46:55.252Z,124.40
2018-12-05T20:49:24.166Z,117.67
2018-12-05T20:51:53.055Z,107.37
2018-12-05T20:54:21.985Z,101.17
2018-12-05T20:56:50.857Z,106.20
2018-12-05T20:59:19.720Z,99.10
2018-12-05T21:01:48.813Z,93.77
2018-12-05T21:04:17.708Z,100.93
2018-12-05T21:06:46.640Z,93.13
2018-12-05T21:09:15.600Z,98.93
2018-12-05T21:11:44.512Z,106.03
2018-12-05T21:14:13.420Z,99.70
2018-12-05T21:16:42.845Z,99.90
2018-12-05T21:19:12.793Z,113.90
2018-12-05T21:21:41.944Z,102.73
2018-12-05T21:24:11.406Z,103.20
2018-12-05T21:26:40.403Z,100.30
2018-12-05T21:29:09.337Z,101.20
2018-12-05T21:31:38.281Z,103.73
2018-12-05T21:34:07.165Z,107.47
2018-12-05T21:36:36.163Z,104.87
2018-12-05T21:39:08.974Z,105.50
2018-12-05T21:41:38.649Z,113.27
2018-12-05T21:44:07.572Z,103.07
2018-12-05T21:46:36.541Z,110.20
2018-12-05T21:49:05.488Z,105.60
2018-12-05T21:51:34.519Z,94.87
2018-12-05T21:54:04.027Z,97.77
2018-12-05T21:56:32.983Z,94.07
2018-12-05T21:59:01.926Z,96.07
2018-12-05T22:01:30.816Z,89.53
2018-12-05T22:03:59.742Z,88.23
2018-12-05T22:06:28.627Z,76.43
2018-12-05T22:08:57.635Z,83.20
2018-12-05T22:11:26.559Z,86.03
2018-12-05T22:13:55.432Z,81.70
2018-12-05T22:16:24.330Z,81.23
2018-12-05T22:18:53.348Z,77.33
2018-12-05T22:21:22.229Z,83.07
2018-12-05T22:23:51.130Z,73.40
2018-12-05T22:26:20.154Z,81.67
2018-12-05T22:28:49.051Z,93.73
2018-12-05T22:31:17.960Z,97.00
2018-12-05T22:33:47.708Z,85.40
2018-12-05T22:36:16.606Z,90.13
2018-12-05T22:38:45.517Z,98.63
2018-12-05T22:41:14.386Z,101.87
2018-12-05T22:43:43.319Z,118.33
2018-12-05T22:46:12.187Z,133.40
2018-12-05T22:48:41.069Z,121.97
2018-12-05T22:51:10.048Z,130.87
2018-12-05T22:53:39.755Z,117.70
2018-12-05T22:56:08.645Z,121.63
2018-12-05T22:58:37.655Z,121.43
2018-12-05T23:01:06.687Z,123.10
2018-12-05T23:03:35.588Z,130.17
2018-12-05T23:06:04.530Z,135.53
2018-12-05T23:08:33.408Z,125.23
2018-12-05T23:11:02.325Z,130.97
2018-12-05T23:13:31.225Z,117.27
2018-12-05T23:16:00.538Z,126.23
2018-12-05T23:18:29.448Z,135.33
2018-12-05T23:20:58.343Z,124.10
2018-12-05T23:23:27.242Z,117.33
2018-12-05T23:25:56.215Z,117.87
2018-12-05T23:28:25.249Z,102.73
2018-12-05T23:30:54.196Z,115.43
2018-12-05T23:33:23.105Z,121.50
2018-12-05T23:35:51.997Z,114.90
2018-12-05T23:38:20.883Z,122.70
2018-12-05T23:40:49.813Z,123.50
2018-12-05T23:43:18.666Z,118.20
2018-12-05T23:45:47.540Z,125.30
2018-12-05T23:48:16.401Z,108.77
2018-12-05T23:50:45.316Z,130.40
2018-12-05T23:53:14.168Z,125.83
2018-12-05T23:55:43.197Z,115.30
2018-12-05T23:58:12.133Z,111.60
